sensor_id;sensor_type;location;lat;lon;timestamp;pressure;altitude;pressure_sealevel;temperature;humidity
11395;BME280;5753;54.402;10.220;2023-05-20T00:00:09;102983.34;;;20.11;41.08
11395;BME280;5753;54.402;10.220;2023-05-20T00:02:35;102976.72;;;20.41;40.64
11395;BME280;5753;54.402;10.220;2023-05-20T00:05:02;102980.16;;;19.61;42.41
11395;BME280;5753;54.402;10.220;2023-05-20T00:07:28;102968.69;;;20.30;40.57
11395;BME280;5753;54.402;10.220;2023-05-20T00:09:54;102971.13;;;20.12;40.88
11395;BME280;5753;54.402;10.220;2023-05-20T00:12:20;102979.63;;;19.88;41.65
11395;BME280;5753;54.402;10.220;2023-05-20T00:14:46;102975.56;;;19.46;43.01
11395;BME280;5753;54.402;10.220;2023-05-20T00:17:12;102973.69;;;20.04;41.53
11395;BME280;5753;54.402;10.220;2023-05-20T00:19:38;102973.09;;;20.33;40.91
11395;BME280;5753;54.402;10.220;2023-05-20T00:22:05;102972.72;;;19.96;41.61
11395;BME280;5753;54.402;10.220;2023-05-20T00:24:31;102965.41;;;19.68;42.84
11395;BME280;5753;54.402;10.220;2023-05-20T00:26:57;102971.47;;;20.41;40.44
11395;BME280;5753;54.402;10.220;2023-05-20T00:29:23;102965.06;;;20.16;40.87
11395;BME280;5753;54.402;10.220;2023-05-20T00:31:49;102978.16;;;20.15;41.11
11395;BME280;5753;54.402;10.220;2023-05-20T00:34:15;102975.69;;;20.30;40.44
11395;BME280;5753;54.402;10.220;2023-05-20T00:36:41;102974.78;;;20.26;40.45
11395;BME280;5753;54.402;10.220;2023-05-20T00:39:07;102978.22;;;20.21;40.26
11395;BME280;5753;54.402;10.220;2023-05-20T00:41:34;102969.25;;;19.97;40.84
11395;BME280;5753;54.402;10.220;2023-05-20T00:44:00;102969.19;;;19.91;41.08
11395;BME280;5753;54.402;10.220;2023-05-20T00:46:27;102970.13;;;19.98;40.58
11395;BME280;5753;54.402;10.220;2023-05-20T00:48:54;102963.06;;;19.91;40.41
11395;BME280;5753;54.402;10.220;2023-05-20T00:51:21;102967.31;;;19.84;40.96
11395;BME280;5753;54.402;10.220;2023-05-20T00:53:47;102969.94;;;19.83;40.78
11395;BME280;5753;54.402;10.220;2023-05-20T00:56:13;102964.50;;;19.66;41.33
11395;BME280;5753;54.402;10.220;2023-05-20T00:58:40;102969.06;;;19.82;40.86
11395;BME280;5753;54.402;10.220;2023-05-20T01:01:06;102962.88;;;19.75;41.32
11395;BME280;5753;54.402;10.220;2023-05-20T01:03:32;102963.84;;;19.84;41.18
11395;BME280;5753;54.402;10.220;2023-05-20T01:05:58;102966.75;;;20.08;40.79
11395;BME280;5753;54.402;10.220;2023-05-20T01:08:25;102963.56;;;19.61;41.67
11395;BME280;5753;54.402;10.220;2023-05-20T01:11:41;102968.34;;;18.71;44.23
11395;BME280;5753;54.402;10.220;2023-05-20T01:13:51;102960.75;;;20.21;40.89
11395;BME280;5753;54.402;10.220;2023-05-20T01:16:19;102957.28;;;20.24;40.43
11395;BME280;5753;54.402;10.220;2023-05-20T01:18:48;102954.59;;;20.16;40.25
11395;BME280;5753;54.402;10.220;2023-05-20T01:21:16;102957.00;;;19.95;40.63
11395;BME280;5753;54.402;10.220;2023-05-20T01:23:43;102958.28;;;20.35;39.92
11395;BME280;5753;54.402;10.220;2023-05-20T01:26:09;102956.63;;;19.63;41.23
11395;BME280;5753;54.402;10.220;2023-05-20T01:28:38;102960.53;;;19.98;40.07
11395;BME280;5753;54.402;10.220;2023-05-20T01:31:09;102952.38;;;19.72;40.08
11395;BME280;5753;54.402;10.220;2023-05-20T01:33:36;102955.59;;;20.29;38.88
11395;BME280;5753;54.402;10.220;2023-05-20T01:36:03;102952.97;;;20.30;38.68
11395;BME280;5753;54.402;10.220;2023-05-20T01:38:31;102958.13;;;20.21;38.67
11395;BME280;5753;54.402;10.220;2023-05-20T01:40:58;102960.66;;;20.10;38.85
11395;BME280;5753;54.402;10.220;2023-05-20T01:43:26;102958.84;;;20.03;38.92
11395;BME280;5753;54.402;10.220;2023-05-20T01:45:53;102956.53;;;19.57;39.93
11395;BME280;5753;54.402;10.220;2023-05-20T01:48:19;102948.16;;;19.85;39.43
11395;BME280;5753;54.402;10.220;2023-05-20T01:50:45;102948.97;;;19.79;39.46
11395;BME280;5753;54.402;10.220;2023-05-20T01:53:11;102946.22;;;19.69;39.96
11395;BME280;5753;54.402;10.220;2023-05-20T01:55:38;102942.75;;;19.70;40.60
11395;BME280;5753;54.402;10.220;2023-05-20T01:58:04;102948.69;;;19.57;41.63
11395;BME280;5753;54.402;10.220;2023-05-20T02:00:31;102946.59;;;20.02;40.73
11395;BME280;5753;54.402;10.220;2023-05-20T02:02:58;102945.91;;;19.44;42.58
11395;BME280;5753;54.402;10.220;2023-05-20T02:05:24;102940.63;;;20.16;41.08
11395;BME280;5753;54.402;10.220;2023-05-20T02:07:51;102944.03;;;19.37;43.13
11395;BME280;5753;54.402;10.220;2023-05-20T02:10:17;102938.63;;;19.90;41.72
11395;BME280;5753;54.402;10.220;2023-05-20T02:12:43;102937.94;;;19.38;42.72
11395;BME280;5753;54.402;10.220;2023-05-20T02:15:09;102937.41;;;19.61;42.46
11395;BME280;5753;54.402;10.220;2023-05-20T02:17:35;102930.84;;;19.28;43.35
11395;BME280;5753;54.402;10.220;2023-05-20T02:20:01;102926.19;;;19.72;41.96
11395;BME280;5753;54.402;10.220;2023-05-20T02:22:31;102933.88;;;19.56;42.65
11395;BME280;5753;54.402;10.220;2023-05-20T02:24:57;102933.25;;;19.78;42.19
11395;BME280;5753;54.402;10.220;2023-05-20T02:27:23;102933.47;;;19.28;43.17
11395;BME280;5753;54.402;10.220;2023-05-20T02:29:49;102939.00;;;20.28;40.98
11395;BME280;5753;54.402;10.220;2023-05-20T02:32:15;102930.50;;;20.49;40.06
11395;BME280;5753;54.402;10.220;2023-05-20T02:34:41;102938.97;;;20.24;40.59
11395;BME280;5753;54.402;10.220;2023-05-20T02:37:07;102937.19;;;19.44;42.18
11395;BME280;5753;54.402;10.220;2023-05-20T02:39:33;102934.38;;;19.32;42.29
11395;BME280;5753;54.402;10.220;2023-05-20T02:41:59;102938.38;;;19.70;41.57
11395;BME280;5753;54.402;10.220;2023-05-20T02:44:25;102935.63;;;19.57;42.06
11395;BME280;5753;54.402;10.220;2023-05-20T02:46:51;102941.53;;;20.21;40.42
11395;BME280;5753;54.402;10.220;2023-05-20T02:49:17;102936.66;;;19.71;41.16
11395;BME280;5753;54.402;10.220;2023-05-20T02:51:43;102937.66;;;18.61;43.50
11395;BME280;5753;54.402;10.220;2023-05-20T02:54:09;102936.31;;;19.43;41.73
11395;BME280;5753;54.402;10.220;2023-05-20T02:56:35;102934.25;;;19.89;40.89
11395;BME280;5753;54.402;10.220;2023-05-20T02:59:01;102935.25;;;20.00;40.65
11395;BME280;5753;54.402;10.220;2023-05-20T03:01:29;102934.03;;;19.71;41.03
11395;BME280;5753;54.402;10.220;2023-05-20T03:03:55;102933.72;;;19.46;41.16
11395;BME280;5753;54.402;10.220;2023-05-20T03:06:21;102938.81;;;19.37;41.51
11395;BME280;5753;54.402;10.220;2023-05-20T03:08:47;102932.38;;;19.77;40.95
11395;BME280;5753;54.402;10.220;2023-05-20T03:11:13;102934.50;;;18.80;42.87
11395;BME280;5753;54.402;10.220;2023-05-20T03:13:39;102934.25;;;19.89;40.77
11395;BME280;5753;54.402;10.220;2023-05-20T03:16:06;102934.03;;;19.69;41.27
11395;BME280;5753;54.402;10.220;2023-05-20T03:18:32;102922.66;;;19.02;42.04
11395;BME280;5753;54.402;10.220;2023-05-20T03:20:58;102929.31;;;20.18;40.33
11395;BME280;5753;54.402;10.220;2023-05-20T03:23:24;102922.72;;;19.73;40.58
11395;BME280;5753;54.402;10.220;2023-05-20T03:25:50;102926.72;;;20.23;40.07
11395;BME280;5753;54.402;10.220;2023-05-20T03:28:16;102922.72;;;19.72;40.65
11395;BME280;5753;54.402;10.220;2023-05-20T03:30:42;102936.38;;;20.30;39.75
11395;BME280;5753;54.402;10.220;2023-05-20T03:33:08;102926.78;;;20.30;39.88
11395;BME280;5753;54.402;10.220;2023-05-20T03:35:35;102933.22;;;20.64;38.86
11395;BME280;5753;54.402;10.220;2023-05-20T03:38:01;102937.91;;;20.06;40.58
11395;BME280;5753;54.402;10.220;2023-05-20T03:40:27;102935.25;;;18.72;42.33
11395;BME280;5753;54.402;10.220;2023-05-20T03:42:53;102938.97;;;20.25;39.74
11395;BME280;5753;54.402;10.220;2023-05-20T03:45:20;102941.25;;;19.90;39.68
11395;BME280;5753;54.402;10.220;2023-05-20T03:47:46;102936.16;;;19.36;41.11
11395;BME280;5753;54.402;10.220;2023-05-20T03:50:12;102945.13;;;20.32;39.52
11395;BME280;5753;54.402;10.220;2023-05-20T03:52:38;102933.28;;;20.73;38.65
11395;BME280;5753;54.402;10.220;2023-05-20T03:55:05;102938.78;;;20.05;39.70
11395;BME280;5753;54.402;10.220;2023-05-20T03:57:32;102935.03;;;19.82;40.34
11395;BME280;5753;54.402;10.220;2023-05-20T03:59:58;102940.28;;;19.85;40.91
11395;BME280;5753;54.402;10.220;2023-05-20T04:02:27;102939.97;;;19.55;41.14
11395;BME280;5753;54.402;10.220;2023-05-20T04:04:53;102936.22;;;20.11;40.46
11395;BME280;5753;54.402;10.220;2023-05-20T04:07:22;102931.34;;;20.45;39.59
11395;BME280;5753;54.402;10.220;2023-05-20T04:09:48;102934.91;;;20.53;39.07
11395;BME280;5753;54.402;10.220;2023-05-20T04:12:15;102938.13;;;21.45;37.91
11395;BME280;5753;54.402;10.220;2023-05-20T04:14:41;102935.78;;;20.55;39.56
11395;BME280;5753;54.402;10.220;2023-05-20T04:17:07;102940.13;;;20.50;39.43
11395;BME280;5753;54.402;10.220;2023-05-20T04:19:33;102929.91;;;19.23;41.77
11395;BME280;5753;54.402;10.220;2023-05-20T04:21:59;102935.19;;;19.94;40.45
11395;BME280;5753;54.402;10.220;2023-05-20T04:24:26;102931.41;;;20.54;39.56
11395;BME280;5753;54.402;10.220;2023-05-20T04:26:52;102930.16;;;21.25;38.62
11395;BME280;5753;54.402;10.220;2023-05-20T04:29:19;102927.56;;;21.29;38.20
11395;BME280;5753;54.402;10.220;2023-05-20T04:31:46;102928.22;;;20.95;39.20
11395;BME280;5753;54.402;10.220;2023-05-20T04:34:13;102914.84;;;20.58;40.13
11395;BME280;5753;54.402;10.220;2023-05-20T04:36:39;102920.34;;;19.95;41.08
11395;BME280;5753;54.402;10.220;2023-05-20T04:39:05;102923.28;;;21.53;38.50
11395;BME280;5753;54.402;10.220;2023-05-20T04:41:32;102919.03;;;21.88;38.00
11395;BME280;5753;54.402;10.220;2023-05-20T04:44:00;102912.47;;;20.92;39.90
11395;BME280;5753;54.402;10.220;2023-05-20T04:46:26;102910.34;;;22.12;38.54
11395;BME280;5753;54.402;10.220;2023-05-20T04:48:53;102915.44;;;21.60;39.01
11395;BME280;5753;54.402;10.220;2023-05-20T04:51:19;102907.63;;;21.77;38.89
11395;BME280;5753;54.402;10.220;2023-05-20T04:53:45;102916.31;;;21.64;39.50
11395;BME280;5753;54.402;10.220;2023-05-20T04:56:11;102910.28;;;21.85;38.51
11395;BME280;5753;54.402;10.220;2023-05-20T04:58:38;102909.41;;;21.99;39.15
11395;BME280;5753;54.402;10.220;2023-05-20T05:01:04;102918.00;;;21.44;40.41
11395;BME280;5753;54.402;10.220;2023-05-20T05:03:31;102912.97;;;22.62;38.31
11395;BME280;5753;54.402;10.220;2023-05-20T05:05:58;102921.50;;;21.38;40.67
11395;BME280;5753;54.402;10.220;2023-05-20T05:08:24;102915.53;;;21.88;40.04
11395;BME280;5753;54.402;10.220;2023-05-20T05:10:54;102915.59;;;22.61;38.73
11395;BME280;5753;54.402;10.220;2023-05-20T05:13:20;102919.03;;;21.87;40.09
11395;BME280;5753;54.402;10.220;2023-05-20T05:15:46;102924.56;;;20.74;42.50
11395;BME280;5753;54.402;10.220;2023-05-20T05:18:12;102917.06;;;20.16;43.43
11395;BME280;5753;54.402;10.220;2023-05-20T05:20:38;102921.03;;;20.68;42.74
11395;BME280;5753;54.402;10.220;2023-05-20T05:23:04;102922.94;;;20.89;42.00
11395;BME280;5753;54.402;10.220;2023-05-20T05:25:30;102925.84;;;21.38;41.31
11395;BME280;5753;54.402;10.220;2023-05-20T05:27:57;102922.66;;;20.52;42.94
11395;BME280;5753;54.402;10.220;2023-05-20T05:30:23;102933.13;;;22.38;39.67
11395;BME280;5753;54.402;10.220;2023-05-20T05:32:49;102930.22;;;21.32;41.75
11395;BME280;5753;54.402;10.220;2023-05-20T05:35:15;102928.84;;;20.63;42.66
11395;BME280;5753;54.402;10.220;2023-05-20T05:37:41;102936.63;;;22.26;39.90
11395;BME280;5753;54.402;10.220;2023-05-20T05:40:08;102928.72;;;22.05;40.58
11395;BME280;5753;54.402;10.220;2023-05-20T05:42:34;102930.50;;;22.30;40.74
11395;BME280;5753;54.402;10.220;2023-05-20T05:45:00;102932.25;;;22.40;39.85
11395;BME280;5753;54.402;10.220;2023-05-20T05:47:26;102927.00;;;22.37;40.00
11395;BME280;5753;54.402;10.220;2023-05-20T05:49:57;102925.03;;;21.54;42.30
11395;BME280;5753;54.402;10.220;2023-05-20T05:52:25;102926.97;;;22.22;40.68
11395;BME280;5753;54.402;10.220;2023-05-20T05:54:52;102920.72;;;23.33;39.08
11395;BME280;5753;54.402;10.220;2023-05-20T05:57:18;102919.47;;;20.93;43.01
11395;BME280;5753;54.402;10.220;2023-05-20T05:59:44;102924.19;;;23.41;39.16
11395;BME280;5753;54.402;10.220;2023-05-20T06:02:10;102932.03;;;21.47;42.82
11395;BME280;5753;54.402;10.220;2023-05-20T06:04:39;102925.69;;;23.95;38.81
11395;BME280;5753;54.402;10.220;2023-05-20T06:07:05;102930.16;;;23.85;38.77
11395;BME280;5753;54.402;10.220;2023-05-20T06:09:31;102926.84;;;23.41;38.89
11395;BME280;5753;54.402;10.220;2023-05-20T06:11:57;102935.69;;;23.24;38.88
11395;BME280;5753;54.402;10.220;2023-05-20T06:14:23;102934.41;;;24.03;38.70
11395;BME280;5753;54.402;10.220;2023-05-20T06:16:49;102934.94;;;24.54;37.89
11395;BME280;5753;54.402;10.220;2023-05-20T06:19:15;102937.06;;;21.18;42.76
11395;BME280;5753;54.402;10.220;2023-05-20T06:21:41;102938.31;;;22.03;41.88
11395;BME280;5753;54.402;10.220;2023-05-20T06:24:07;102932.25;;;22.34;41.22
11395;BME280;5753;54.402;10.220;2023-05-20T06:26:33;102932.22;;;23.01;40.30
11395;BME280;5753;54.402;10.220;2023-05-20T06:28:59;102931.38;;;22.43;41.45
11395;BME280;5753;54.402;10.220;2023-05-20T06:31:25;102936.75;;;25.36;36.77
11395;BME280;5753;54.402;10.220;2023-05-20T06:33:52;102929.59;;;23.00;39.81
11395;BME280;5753;54.402;10.220;2023-05-20T06:36:18;102938.28;;;23.28;40.14
11395;BME280;5753;54.402;10.220;2023-05-20T06:38:44;102937.47;;;22.07;42.08
11395;BME280;5753;54.402;10.220;2023-05-20T06:41:10;102934.88;;;22.55;41.40
11395;BME280;5753;54.402;10.220;2023-05-20T06:43:36;102930.31;;;23.46;40.24
11395;BME280;5753;54.402;10.220;2023-05-20T06:46:03;102930.41;;;23.23;40.55
11395;BME280;5753;54.402;10.220;2023-05-20T06:48:29;102937.44;;;23.19;40.68
11395;BME280;5753;54.402;10.220;2023-05-20T06:50:55;102929.56;;;23.07;41.50
11395;BME280;5753;54.402;10.220;2023-05-20T06:53:21;102930.25;;;23.64;40.15
11395;BME280;5753;54.402;10.220;2023-05-20T06:55:47;102928.75;;;22.87;41.20
11395;BME280;5753;54.402;10.220;2023-05-20T06:58:14;102927.19;;;24.37;39.81
11395;BME280;5753;54.402;10.220;2023-05-20T07:00:40;102927.53;;;24.93;38.09
11395;BME280;5753;54.402;10.220;2023-05-20T07:03:06;102930.41;;;23.15;41.73
11395;BME280;5753;54.402;10.220;2023-05-20T07:05:32;102926.09;;;22.18;43.90
11395;BME280;5753;54.402;10.220;2023-05-20T07:07:58;102919.66;;;23.79;40.45
11395;BME280;5753;54.402;10.220;2023-05-20T07:10:24;102928.22;;;24.09;40.27
11395;BME280;5753;54.402;10.220;2023-05-20T07:12:50;102927.00;;;22.25;43.25
11395;BME280;5753;54.402;10.220;2023-05-20T07:15:16;102913.22;;;24.28;39.75
11395;BME280;5753;54.402;10.220;2023-05-20T07:17:42;102919.47;;;24.05;40.40
11395;BME280;5753;54.402;10.220;2023-05-20T07:20:09;102917.09;;;23.64;41.32
11395;BME280;5753;54.402;10.220;2023-05-20T07:22:35;102917.28;;;23.06;42.54
11395;BME280;5753;54.402;10.220;2023-05-20T07:25:01;102925.88;;;23.66;41.18
11395;BME280;5753;54.402;10.220;2023-05-20T07:27:28;102926.06;;;23.05;42.17
11395;BME280;5753;54.402;10.220;2023-05-20T07:29:54;102925.22;;;24.59;39.94
11395;BME280;5753;54.402;10.220;2023-05-20T07:32:20;102926.47;;;25.12;37.83
11395;BME280;5753;54.402;10.220;2023-05-20T07:34:46;102927.41;;;25.06;38.54
11395;BME280;5753;54.402;10.220;2023-05-20T07:37:12;102925.03;;;25.57;37.72
11395;BME280;5753;54.402;10.220;2023-05-20T07:39:38;102930.34;;;24.76;38.66
11395;BME280;5753;54.402;10.220;2023-05-20T07:42:04;102918.22;;;26.04;36.82
11395;BME280;5753;54.402;10.220;2023-05-20T07:44:31;102915.91;;;24.14;40.15
11395;BME280;5753;54.402;10.220;2023-05-20T07:46:57;102917.94;;;24.84;38.99
11395;BME280;5753;54.402;10.220;2023-05-20T07:49:23;102911.56;;;25.09;38.17
11395;BME280;5753;54.402;10.220;2023-05-20T07:51:49;102916.63;;;24.37;39.78
11395;BME280;5753;54.402;10.220;2023-05-20T07:54:15;102909.34;;;24.67;38.84
11395;BME280;5753;54.402;10.220;2023-05-20T07:56:42;102911.25;;;22.37;43.06
11395;BME280;5753;54.402;10.220;2023-05-20T07:59:08;102909.19;;;23.63;41.53
11395;BME280;5753;54.402;10.220;2023-05-20T08:01:34;102915.69;;;24.44;40.70
11395;BME280;5753;54.402;10.220;2023-05-20T08:04:00;102905.28;;;24.29;40.83
11395;BME280;5753;54.402;10.220;2023-05-20T08:06:26;102909.22;;;25.56;38.55
11395;BME280;5753;54.402;10.220;2023-05-20T08:08:52;102914.31;;;23.89;40.95
11395;BME280;5753;54.402;10.220;2023-05-20T08:11:19;102916.03;;;25.73;37.64
11395;BME280;5753;54.402;10.220;2023-05-20T08:13:46;102920.31;;;24.15;40.72
11395;BME280;5753;54.402;10.220;2023-05-20T08:16:13;102917.97;;;25.59;37.83
11395;BME280;5753;54.402;10.220;2023-05-20T08:18:39;102921.06;;;24.32;39.72
11395;BME280;5753;54.402;10.220;2023-05-20T08:21:06;102918.47;;;24.28;40.49
11395;BME280;5753;54.402;10.220;2023-05-20T08:23:35;102921.06;;;24.32;40.49
11395;BME280;5753;54.402;10.220;2023-05-20T08:26:02;102922.34;;;24.85;39.53
11395;BME280;5753;54.402;10.220;2023-05-20T08:28:29;102914.56;;;24.71;39.52
11395;BME280;5753;54.402;10.220;2023-05-20T08:30:55;102921.19;;;24.11;39.55
11395;BME280;5753;54.402;10.220;2023-05-20T08:33:22;102925.50;;;24.24;39.59
11395;BME280;5753;54.402;10.220;2023-05-20T08:35:49;102927.22;;;25.25;38.59
11395;BME280;5753;54.402;10.220;2023-05-20T08:38:15;102912.97;;;26.02;36.63
11395;BME280;5753;54.402;10.220;2023-05-20T08:40:41;102919.72;;;25.60;37.40
11395;BME280;5753;54.402;10.220;2023-05-20T08:43:07;102917.19;;;24.74;37.94
11395;BME280;5753;54.402;10.220;2023-05-20T08:45:37;102917.38;;;24.52;38.13
11395;BME280;5753;54.402;10.220;2023-05-20T08:48:03;102914.38;;;23.82;38.91
11395;BME280;5753;54.402;10.220;2023-05-20T08:50:30;102923.31;;;24.76;37.53
11395;BME280;5753;54.402;10.220;2023-05-20T08:52:56;102913.09;;;24.38;38.61
11395;BME280;5753;54.402;10.220;2023-05-20T08:55:35;102917.53;;;25.90;36.39
11395;BME280;5753;54.402;10.220;2023-05-20T08:58:02;102909.81;;;25.78;35.25
11395;BME280;5753;54.402;10.220;2023-05-20T09:00:29;102910.25;;;24.63;36.91
11395;BME280;5753;54.402;10.220;2023-05-20T09:02:59;102912.75;;;23.48;38.16
11395;BME280;5753;54.402;10.220;2023-05-20T09:05:26;102906.59;;;24.77;36.74
11395;BME280;5753;54.402;10.220;2023-05-20T09:07:52;102900.69;;;24.49;36.65
11395;BME280;5753;54.402;10.220;2023-05-20T09:10:29;102891.69;;;23.57;38.81
11395;BME280;5753;54.402;10.220;2023-05-20T09:12:55;102893.75;;;25.27;36.79
11395;BME280;5753;54.402;10.220;2023-05-20T09:15:21;102898.09;;;25.95;34.67
11395;BME280;5753;54.402;10.220;2023-05-20T09:17:49;102898.78;;;25.43;35.49
11395;BME280;5753;54.402;10.220;2023-05-20T09:20:15;102888.69;;;26.31;35.26
11395;BME280;5753;54.402;10.220;2023-05-20T09:22:42;102890.19;;;26.48;33.19
11395;BME280;5753;54.402;10.220;2023-05-20T09:25:08;102892.66;;;26.06;34.49
11395;BME280;5753;54.402;10.220;2023-05-20T09:27:37;102895.78;;;24.01;36.18
11395;BME280;5753;54.402;10.220;2023-05-20T09:30:06;102889.53;;;24.20;35.67
11395;BME280;5753;54.402;10.220;2023-05-20T09:32:32;102888.59;;;27.30;32.11
11395;BME280;5753;54.402;10.220;2023-05-20T09:34:58;102882.25;;;25.94;34.48
11395;BME280;5753;54.402;10.220;2023-05-20T09:37:27;102877.94;;;26.90;32.88
11395;BME280;5753;54.402;10.220;2023-05-20T09:40:02;102876.03;;;26.52;33.58
11395;BME280;5753;54.402;10.220;2023-05-20T09:42:44;102884.22;;;26.84;32.66
11395;BME280;5753;54.402;10.220;2023-05-20T09:45:12;102881.84;;;27.17;32.10
11395;BME280;5753;54.402;10.220;2023-05-20T09:47:39;102878.47;;;26.12;33.28
11395;BME280;5753;54.402;10.220;2023-05-20T09:50:08;102875.50;;;27.66;30.97
11395;BME280;5753;54.402;10.220;2023-05-20T09:52:38;102876.38;;;26.80;32.50
11395;BME280;5753;54.402;10.220;2023-05-20T09:55:08;102881.78;;;25.67;33.48
11395;BME280;5753;54.402;10.220;2023-05-20T09:57:37;102867.81;;;27.12;32.22
11395;BME280;5753;54.402;10.220;2023-05-20T10:00:05;102858.69;;;26.35;32.90
11395;BME280;5753;54.402;10.220;2023-05-20T10:02:34;102867.75;;;27.15;31.57
11395;BME280;5753;54.402;10.220;2023-05-20T10:05:05;102869.75;;;24.70;34.72
11395;BME280;5753;54.402;10.220;2023-05-20T10:10:53;102853.31;;;27.29;31.06
11395;BME280;5753;54.402;10.220;2023-05-20T10:16:37;102861.22;;;29.37;27.77
11395;BME280;5753;54.402;10.220;2023-05-20T10:19:11;102849.81;;;29.04;29.34
11395;BME280;5753;54.402;10.220;2023-05-20T10:21:43;102854.28;;;28.37;29.22
11395;BME280;5753;54.402;10.220;2023-05-20T10:24:10;102848.13;;;27.65;30.66
11395;BME280;5753;54.402;10.220;2023-05-20T10:26:37;102855.03;;;29.64;28.69
11395;BME280;5753;54.402;10.220;2023-05-20T10:29:19;102857.56;;;26.93;29.66
11395;BME280;5753;54.402;10.220;2023-05-20T10:31:51;102856.72;;;28.10;29.28
11395;BME280;5753;54.402;10.220;2023-05-20T10:34:18;102854.81;;;25.41;32.54
11395;BME280;5753;54.402;10.220;2023-05-20T10:37:06;102844.75;;;26.74;29.82
11395;BME280;5753;54.402;10.220;2023-05-20T10:39:32;102831.84;;;27.03;29.77
11395;BME280;5753;54.402;10.220;2023-05-20T10:42:09;102827.88;;;27.98;28.84
11395;BME280;5753;54.402;10.220;2023-05-20T10:44:43;102830.19;;;28.12;28.85
11395;BME280;5753;54.402;10.220;2023-05-20T10:47:09;102826.63;;;26.95;30.12
11395;BME280;5753;54.402;10.220;2023-05-20T10:49:45;102833.63;;;28.49;28.36
11395;BME280;5753;54.402;10.220;2023-05-20T10:52:16;102825.78;;;27.37;29.34
11395;BME280;5753;54.402;10.220;2023-05-20T10:54:46;102817.31;;;27.21;29.60
11395;BME280;5753;54.402;10.220;2023-05-20T10:57:13;102824.44;;;28.61;28.01
11395;BME280;5753;54.402;10.220;2023-05-20T10:59:40;102823.72;;;28.56;28.12
11395;BME280;5753;54.402;10.220;2023-05-20T11:02:07;102824.63;;;29.47;28.06
11395;BME280;5753;54.402;10.220;2023-05-20T11:04:35;102834.63;;;28.76;29.01
11395;BME280;5753;54.402;10.220;2023-05-20T11:07:02;102821.28;;;27.79;29.65
11395;BME280;5753;54.402;10.220;2023-05-20T11:09:28;102817.84;;;26.52;31.13
11395;BME280;5753;54.402;10.220;2023-05-20T11:11:56;102823.75;;;29.46;28.46
11395;BME280;5753;54.402;10.220;2023-05-20T11:14:23;102805.53;;;29.88;28.19
11395;BME280;5753;54.402;10.220;2023-05-20T11:16:52;102803.50;;;30.46;26.55
11395;BME280;5753;54.402;10.220;2023-05-20T11:19:20;102811.53;;;28.49;28.90
11395;BME280;5753;54.402;10.220;2023-05-20T11:21:47;102793.00;;;28.13;29.50
11395;BME280;5753;54.402;10.220;2023-05-20T11:24:14;102793.06;;;29.06;28.25
11395;BME280;5753;54.402;10.220;2023-05-20T11:26:47;102808.75;;;28.83;29.29
11395;BME280;5753;54.402;10.220;2023-05-20T11:29:13;102798.53;;;26.90;29.98
11395;BME280;5753;54.402;10.220;2023-05-20T11:31:39;102804.63;;;28.43;29.09
11395;BME280;5753;54.402;10.220;2023-05-20T11:34:05;102802.38;;;28.92;28.09
11395;BME280;5753;54.402;10.220;2023-05-20T11:36:31;102798.97;;;29.16;27.84
11395;BME280;5753;54.402;10.220;2023-05-20T11:38:58;102801.50;;;28.28;28.87
11395;BME280;5753;54.402;10.220;2023-05-20T11:41:26;102801.75;;;28.80;28.28
11395;BME280;5753;54.402;10.220;2023-05-20T11:43:59;102797.56;;;26.00;32.25
11395;BME280;5753;54.402;10.220;2023-05-20T11:46:26;102798.16;;;27.10;31.25
11395;BME280;5753;54.402;10.220;2023-05-20T11:48:55;102790.22;;;28.52;29.38
11395;BME280;5753;54.402;10.220;2023-05-20T11:51:26;102797.03;;;29.21;28.67
11395;BME280;5753;54.402;10.220;2023-05-20T11:54:03;102792.34;;;31.07;26.72
11395;BME280;5753;54.402;10.220;2023-05-20T11:56:30;102776.88;;;30.71;27.33
11395;BME280;5753;54.402;10.220;2023-05-20T11:58:58;102785.84;;;30.92;26.53
11395;BME280;5753;54.402;10.220;2023-05-20T12:01:24;102793.56;;;30.26;27.30
11395;BME280;5753;54.402;10.220;2023-05-20T12:03:50;102785.78;;;31.39;26.26
11395;BME280;5753;54.402;10.220;2023-05-20T12:06:17;102782.09;;;29.99;27.72
11395;BME280;5753;54.402;10.220;2023-05-20T12:08:43;102787.00;;;30.12;27.27
11395;BME280;5753;54.402;10.220;2023-05-20T12:11:09;102779.09;;;30.58;26.92
11395;BME280;5753;54.402;10.220;2023-05-20T12:13:35;102782.38;;;31.99;26.44
11395;BME280;5753;54.402;10.220;2023-05-20T12:16:01;102766.38;;;31.99;25.46
11395;BME280;5753;54.402;10.220;2023-05-20T12:18:29;102766.13;;;30.49;26.77
11395;BME280;5753;54.402;10.220;2023-05-20T12:20:55;102763.13;;;31.28;26.57
11395;BME280;5753;54.402;10.220;2023-05-20T12:23:21;102767.31;;;31.11;26.30
11395;BME280;5753;54.402;10.220;2023-05-20T12:25:47;102756.75;;;31.95;25.85
11395;BME280;5753;54.402;10.220;2023-05-20T12:28:14;102757.88;;;31.47;25.85
11395;BME280;5753;54.402;10.220;2023-05-20T12:30:42;102745.88;;;31.37;25.76
11395;BME280;5753;54.402;10.220;2023-05-20T12:33:08;102747.13;;;29.85;27.14
11395;BME280;5753;54.402;10.220;2023-05-20T12:35:38;102758.41;;;30.90;25.97
11395;BME280;5753;54.402;10.220;2023-05-20T12:38:05;102758.34;;;31.13;25.41
11395;BME280;5753;54.402;10.220;2023-05-20T12:40:32;102761.75;;;32.43;24.09
11395;BME280;5753;54.402;10.220;2023-05-20T12:43:01;102761.50;;;31.01;25.23
11395;BME280;5753;54.402;10.220;2023-05-20T12:45:27;102755.75;;;31.12;25.41
11395;BME280;5753;54.402;10.220;2023-05-20T12:47:54;102740.41;;;33.72;22.65
11395;BME280;5753;54.402;10.220;2023-05-20T12:50:20;102749.25;;;34.24;22.34
11395;BME280;5753;54.402;10.220;2023-05-20T12:52:46;102747.38;;;33.57;21.86
11395;BME280;5753;54.402;10.220;2023-05-20T12:55:13;102745.06;;;33.86;22.99